Time;durP1;ratioP1;P1;durP2;ratioP2;P2;SDS_P1;SDS_P2;PMS_P1;PMS_P2;Temp;Humidity;BMP_temperature;BMP_pressure;BME280_temperature;BME280_humidity;BME280_pressure;Samples;Min_cycle;Max_cycle;Signal;HPM_P1;HPM_P2
2022/06/14 00:00:55;;;;;;;0.60;0.60;;;14.30;65.60;;;14.34;50.80;95428.84;5071166;28;20214;-78
2022/06/14 00:03:24;;;;;;;0.60;0.60;;;14.20;65.50;;;14.30;50.98;95432.91;5072982;28;20198;-78
2022/06/14 00:05:52;;;;;;;0.60;0.60;;;14.10;65.60;;;14.22;51.18;95428.63;5085728;28;20233;-78
2022/06/14 00:08:25;;;;;;;0.60;0.60;;;14.10;65.60;;;14.20;51.31;95430.66;5038673;28;20220;-78
2022/06/14 00:10:55;;;;;;;0.52;0.52;;;14.10;65.90;;;14.17;51.07;95436.31;5084409;28;20237;-78
2022/06/14 00:13:25;;;;;;;0.50;0.50;;;14.00;65.90;;;14.13;51.17;95428.00;5081292;28;20199;-78
2022/06/14 00:15:52;;;;;;;0.60;0.60;;;13.90;65.80;;;14.08;51.32;95427.81;5071179;28;20682;-78
2022/06/14 00:18:19;;;;;;;0.60;0.60;;;14.00;65.90;;;14.08;51.33;95435.72;5054654;28;20225;-79
2022/06/14 00:20:49;;;;;;;0.60;0.60;;;13.90;65.90;;;14.04;51.41;95429.22;5059106;28;20222;-78
2022/06/14 00:23:17;;;;;;;0.57;0.57;;;13.90;66.30;;;14.03;51.25;95438.94;5040255;28;20565;-79
2022/06/14 00:25:51;;;;;;;0.60;0.60;;;13.80;66.00;;;13.99;51.84;95434.25;5057214;28;20213;-78
2022/06/14 00:28:20;;;;;;;0.60;0.60;;;13.80;66.50;;;14.01;52.48;95438.34;5074742;28;20279;-78
2022/06/14 00:30:53;;;;;;;0.60;0.60;;;13.80;66.50;;;14.00;52.54;95438.53;5054720;28;20692;-78
2022/06/14 00:33:21;;;;;;;0.50;0.50;;;13.80;66.90;;;14.02;52.59;95447.88;5086373;28;20198;-78
2022/06/14 00:35:47;;;;;;;0.60;0.60;;;13.80;66.70;;;13.97;53.11;95434.47;5090641;28;20243;-78
2022/06/14 00:38:16;;;;;;;0.60;0.60;;;13.80;67.00;;;14.03;53.59;95438.16;5091325;28;20679;-78
2022/06/14 00:40:52;;;;;;;0.50;0.50;;;13.80;67.20;;;14.01;54.66;95443.63;5088657;28;20214;-78
2022/06/14 00:43:19;;;;;;;0.60;0.60;;;13.90;67.90;;;13.99;54.83;95437.72;5055962;28;20205;-78
2022/06/14 00:45:48;;;;;;;0.60;0.60;;;13.90;68.00;;;14.01;55.23;95438.34;5057662;28;20218;-78
2022/06/14 00:48:24;;;;;;;0.60;0.60;;;13.90;68.20;;;14.03;54.62;95443.41;5086838;28;20205;-78
2022/06/14 00:51:12;;;;;;;0.65;0.65;;;13.90;68.20;;;14.01;54.68;95441.00;5055260;28;20312;-78
2022/06/14 00:54:17;;;;;;;0.65;0.65;;;13.90;68.00;;;14.01;54.80;95442.81;5053906;28;20570;-78
2022/06/14 00:57:05;;;;;;;0.60;0.60;;;13.90;68.30;;;13.98;55.63;95451.94;5099906;28;20316;-78
2022/06/14 00:59:40;;;;;;;0.60;0.60;;;13.90;68.30;;;13.98;56.19;95453.75;5081725;28;20217;-78
2022/06/14 01:02:19;;;;;;;0.60;0.60;;;13.90;68.90;;;13.90;56.10;95452.09;5054350;28;20273;-78
2022/06/14 01:04:47;;;;;;;0.70;0.70;;;13.90;68.80;;;13.93;56.38;95464.91;5056343;28;20250;-78
2022/06/14 01:07:24;;;;;;;0.60;0.60;;;13.90;68.90;;;13.90;56.60;95458.22;5055874;28;20646;-79
2022/06/14 01:10:07;;;;;;;0.60;0.60;;;13.90;69.20;;;13.87;56.66;95458.59;5053993;28;20341;-78
2022/06/14 01:12:39;;;;;;;0.60;0.60;;;13.90;69.50;;;13.85;57.51;95452.69;5054275;28;20175;-78
2022/06/14 01:15:27;;;;;;;0.60;0.60;;;13.90;69.80;;;13.86;57.89;95453.53;5090825;28;20221;-78
2022/06/14 01:18:08;;;;;;;0.77;0.77;;;13.90;69.80;;;13.86;57.82;95458.78;5084737;28;20210;-78
2022/06/14 01:20:36;;;;;;;0.60;0.60;;;13.90;70.00;;;13.86;58.63;95456.16;5037631;28;20229;-78
2022/06/14 01:23:06;;;;;;;0.55;0.55;;;13.90;70.10;;;13.83;58.91;95461.81;5069986;28;20198;-77
2022/06/14 01:25:42;;;;;;;0.50;0.50;;;13.90;70.40;;;13.87;58.04;95455.94;5083856;28;20253;-78
2022/06/14 01:28:11;;;;;;;0.60;0.60;;;13.90;70.30;;;13.82;57.81;95450.47;5062387;28;20659;-78
2022/06/14 01:30:45;;;;;;;0.60;0.60;;;13.90;70.30;;;13.85;57.92;95460.59;5087434;28;20221;-78
2022/06/14 01:33:21;;;;;;;0.60;0.60;;;13.90;70.40;;;13.83;57.88;95459.19;5081159;28;20206;-78
2022/06/14 01:35:54;;;;;;;0.50;0.50;;;13.90;70.50;;;13.78;58.20;95454.53;5073446;28;20249;-77
2022/06/14 01:38:22;;;;;;;0.60;0.60;;;13.90;70.50;;;13.78;58.80;95457.16;5037333;28;20199;-79
2022/06/14 01:40:58;;;;;;;0.60;0.60;;;13.80;70.70;;;13.76;59.19;95462.59;5070384;28;20218;-78
2022/06/14 01:43:47;;;;;;;0.60;0.60;;;13.80;70.80;;;13.71;58.88;95458.97;5069237;28;20319;-78
2022/06/14 01:46:29;;;;;;;0.60;0.60;;;13.80;71.20;;;13.71;59.32;95462.41;5069059;28;20222;-77
2022/06/14 01:52:42;;;;;;;0.60;0.60;;;13.90;71.20;;;13.69;59.03;95453.06;5083469;28;20182;-78
2022/06/14 01:55:47;;;;;;;0.50;0.50;;;13.80;70.90;;;13.66;58.40;95459.56;5073552;28;20684;-78
2022/06/14 01:58:52;;;;;;;0.57;0.57;;;13.90;70.90;;;13.63;58.44;95448.59;5073777;28;20187;-78
2022/06/14 02:01:41;;;;;;;0.70;0.70;;;13.70;70.90;;;13.63;57.85;95464.41;5084041;28;20552;-79
2022/06/14 02:04:39;;;;;;;0.60;0.60;;;13.70;70.60;;;13.58;57.78;95459.72;5057147;28;20197;-79
2022/06/14 02:07:44;;;;;;;0.60;0.60;;;13.70;70.30;;;13.52;57.91;95471.03;5085880;28;20214;-78
2022/06/14 02:10:32;;;;;;;0.60;0.60;;;13.70;70.60;;;13.47;58.05;95471.63;5076659;28;20233;-78
2022/06/14 02:13:20;;;;;;;0.75;0.75;;;13.60;70.70;;;13.46;57.98;95485.81;5072887;28;20222;-78
2022/06/14 02:15:54;;;;;;;0.70;0.70;;;13.60;70.40;;;13.44;57.99;95477.31;5084031;28;20214;-78
2022/06/14 02:19:01;;;;;;;0.80;0.80;;;13.50;70.60;;;13.36;57.78;95467.69;5093790;28;20194;-78
2022/06/14 02:21:32;;;;;;;0.60;0.60;;;13.50;70.30;;;13.39;57.70;95482.31;5071809;28;20218;-78
2022/06/14 02:24:25;;;;;;;0.60;0.60;;;13.40;70.30;;;13.35;57.90;95481.06;5090240;28;20214;-78
2022/06/14 02:26:59;;;;;;;0.50;0.50;;;13.40;70.80;;;13.34;58.32;95474.16;5085005;28;20211;-78
2022/06/14 02:30:00;;;;;;;0.60;0.60;;;13.40;71.00;;;13.29;58.57;95480.84;5073055;28;20222;-78
2022/06/14 02:32:44;;;;;;;0.60;0.60;;;13.40;70.90;;;13.32;58.43;95473.53;5073353;28;20254;-79
2022/06/14 02:35:19;;;;;;;0.50;0.50;;;13.40;71.30;;;13.32;59.09;95471.72;5058322;28;20283;-78
2022/06/14 02:38:11;;;;;;;0.60;0.60;;;13.40;71.70;;;13.35;58.90;95470.53;5072973;28;20226;-78
2022/06/14 02:41:03;;;;;;;0.60;0.60;;;13.40;71.80;;;13.32;58.69;95474.38;5056564;28;20317;-77
2022/06/14 02:44:32;;;;;;;0.80;0.80;;;13.40;71.30;;;13.29;59.42;95475.56;5072943;28;20554;-78
2022/06/14 02:47:37;;;;;;;0.60;0.60;;;13.40;72.60;;;13.26;59.27;95478.59;5026960;28;20239;-77
2022/06/14 02:50:17;;;;;;;0.60;0.60;;;13.40;71.50;;;13.25;58.80;95471.69;4994771;28;20398;-78
2022/06/14 02:53:16;;;;;;;0.50;0.50;;;13.40;71.80;;;13.21;58.53;95477.56;5091392;28;20245;-78
2022/06/14 02:56:07;;;;;;;0.70;0.70;;;13.30;72.10;;;13.20;58.80;95482.00;5074265;28;20209;-78
2022/06/14 02:58:47;;;;;;;0.60;0.60;;;13.20;71.70;;;13.18;59.13;95478.72;5065118;28;20276;-78
2022/06/14 03:01:30;;;;;;;0.60;0.60;;;13.30;71.80;;;13.17;59.69;95489.47;5075162;28;20702;-78
2022/06/14 03:04:18;;;;;;;0.60;0.60;;;13.20;71.90;;;13.10;59.87;95487.63;5093039;28;20240;-78
2022/06/14 03:06:58;;;;;;;0.60;0.60;;;13.20;72.20;;;13.09;60.04;95483.34;5089291;28;20198;-78
2022/06/14 03:09:32;;;;;;;0.50;0.50;;;13.20;72.10;;;13.06;60.21;95486.38;5093057;28;20782;-78
2022/06/14 03:12:38;;;;;;;0.80;0.80;;;13.20;73.20;;;13.04;60.25;95491.03;5059508;28;20285;-78
2022/06/14 03:15:41;;;;;;;0.60;0.60;;;13.20;72.40;;;13.02;60.45;95485.13;5072786;28;20335;-78
2022/06/14 03:18:51;;;;;;;0.65;0.65;;;13.10;72.30;;;12.98;60.32;95484.69;5055431;28;20218;-77
2022/06/14 03:21:40;;;;;;;0.50;0.50;;;13.10;72.10;;;13.01;60.67;95483.53;5010198;28;20295;-78
2022/06/14 03:24:27;;;;;;;0.60;0.60;;;13.10;72.60;;;13.00;60.91;95487.16;5070231;28;20199;-78
2022/06/14 03:27:02;;;;;;;0.60;0.60;;;13.10;73.00;;;13.02;60.27;95485.13;5055682;28;20228;-78
2022/06/14 03:29:43;;;;;;;0.60;0.60;;;13.10;72.90;;;12.98;60.87;95476.00;5055008;28;20217;-79
2022/06/14 03:32:48;;;;;;;0.60;0.60;;;13.10;72.80;;;13.02;60.71;95486.97;5069702;28;20189;-78
2022/06/14 03:35:32;;;;;;;0.70;0.70;;;13.10;73.00;;;13.01;60.70;95487.97;5079373;28;20228;-78
2022/06/14 03:38:13;;;;;;;0.60;0.60;;;13.10;72.90;;;13.00;60.79;95483.69;5053330;28;20221;-79
2022/06/14 03:40:45;;;;;;;0.60;0.60;;;13.20;73.10;;;13.07;61.19;95495.09;5053571;28;20719;-78
2022/06/14 03:43:13;;;;;;;0.63;0.63;;;13.20;73.40;;;13.12;61.31;95497.94;5045870;28;20206;-78
2022/06/14 03:46:10;;;;;;;0.60;0.60;;;13.20;73.30;;;13.13;61.33;95497.78;5052496;28;20672;-78
2022/06/14 03:48:42;;;;;;;0.80;0.80;;;13.20;73.50;;;13.19;61.88;95496.16;5041525;28;20547;-79
2022/06/14 03:51:58;;;;;;;0.50;0.50;;;13.30;74.00;;;13.27;61.40;95500.50;5052133;28;20268;-78
2022/06/14 03:55:02;;;;;;;0.60;0.60;;;13.40;73.80;;;13.35;61.06;95495.03;5051657;28;20412;-79
2022/06/14 03:57:47;;;;;;;0.60;0.60;;;13.40;73.90;;;13.46;61.03;95496.34;5054905;28;20724;-78
2022/06/14 04:00:33;;;;;;;0.60;0.60;;;13.50;73.80;;;13.54;60.98;95498.81;5048018;28;20605;-78
2022/06/14 04:03:51;;;;;;;0.60;0.60;;;13.70;73.80;;;13.64;60.52;95495.81;5054047;28;20198;-78
2022/06/14 04:06:44;;;;;;;0.60;0.60;;;13.70;73.90;;;13.71;60.36;95490.59;5038376;28;20227;-80
2022/06/14 04:09:28;;;;;;;0.50;0.50;;;13.70;73.50;;;13.77;60.48;95490.59;5072155;28;20278;-80
2022/06/14 04:12:12;;;;;;;0.60;0.60;;;13.80;73.70;;;13.82;60.78;95483.91;5059203;28;20187;-79
2022/06/14 04:15:14;;;;;;;0.80;0.80;;;13.90;73.70;;;13.85;60.81;95492.25;5031332;28;20270;-79
2022/06/14 04:17:55;;;;;;;0.63;0.63;;;13.90;73.60;;;13.89;60.60;95487.38;5074164;28;20296;-79
2022/06/14 04:20:35;;;;;;;0.50;0.50;;;14.00;73.80;;;13.94;60.51;95485.00;5076182;28;20324;-77
2022/06/14 04:23:21;;;;;;;0.60;0.60;;;14.00;74.10;;;13.98;60.56;95482.78;5038293;28;20217;-79
2022/06/14 04:26:15;;;;;;;0.55;0.55;;;14.10;73.90;;;14.00;61.11;95492.09;5038129;28;20221;-79
2022/06/14 04:29:12;;;;;;;0.60;0.60;;;14.10;74.60;;;14.02;60.59;95492.69;5037438;28;20183;-79
2022/06/14 04:31:46;;;;;;;0.60;0.60;;;14.20;73.70;;;14.09;60.27;95496.19;5074117;28;20277;-78
2022/06/14 04:34:22;;;;;;;0.60;0.60;;;14.20;73.70;;;14.19;60.45;95495.78;5054661;28;20267;-78
2022/06/14 04:37:17;;;;;;;0.60;0.60;;;14.20;73.80;;;14.22;60.14;95498.03;5060556;28;20236;-79
2022/06/14 04:39:56;;;;;;;0.60;0.60;;;14.30;73.60;;;14.29;60.25;95494.59;5052835;28;20296;-78
2022/06/14 04:42:49;;;;;;;0.50;0.50;;;14.30;73.50;;;14.34;59.99;95492.16;5056037;28;20553;-79
2022/06/14 04:45:34;;;;;;;0.60;0.60;;;14.40;73.50;;;14.35;60.10;95488.53;5053289;28;20809;-80
2022/06/14 04:48:49;;;;;;;0.55;0.55;;;14.40;73.20;;;14.42;60.02;95491.97;5038333;28;20761;-79
2022/06/14 04:51:36;;;;;;;0.57;0.57;;;14.50;73.10;;;14.49;60.04;95503.34;5048185;28;20232;-78
2022/06/14 04:54:08;;;;;;;0.60;0.60;;;14.70;73.40;;;14.54;60.06;95502.75;5071523;28;20198;-78
2022/06/14 04:57:00;;;;;;;0.70;0.70;;;14.60;73.40;;;14.61;59.78;95505.38;5075333;28;20281;-79
2022/06/14 04:59:39;;;;;;;0.70;0.70;;;14.70;73.50;;;14.67;59.73;95496.69;5025599;28;20224;-79
2022/06/14 05:02:21;;;;;;;0.70;0.70;;;14.80;73.50;;;14.76;59.31;95492.00;5071309;28;20197;-79
2022/06/14 05:05:22;;;;;;;0.60;0.60;;;14.80;73.20;;;14.86;59.21;95505.63;5071982;28;20217;-80
2022/06/14 05:07:56;;;;;;;0.40;0.40;;;14.80;73.20;;;14.94;59.50;95509.88;5055857;28;20284;-81
2022/06/14 05:10:33;;;;;;;0.70;0.70;;;14.90;73.30;;;15.02;58.99;95507.03;5079475;28;20225;-80
2022/06/14 05:13:12;;;;;;;0.60;0.60;;;15.00;73.20;;;15.10;58.70;95509.47;5071718;28;20251;-80
2022/06/14 05:15:51;;;;;;;0.60;0.60;;;15.00;73.00;;;15.21;58.66;95514.13;5068836;28;20237;-79
2022/06/14 05:18:31;;;;;;;0.50;0.50;;;15.20;73.00;;;15.29;58.37;95507.00;5070586;28;20586;-80
2022/06/14 05:21:09;;;;;;;0.60;0.60;;;15.20;72.80;;;15.36;58.12;95505.16;5071576;28;20668;-81
2022/06/14 05:23:47;;;;;;;0.60;0.60;;;15.30;72.50;;;15.46;58.04;95507.38;5075302;28;20280;-80
2022/06/14 05:26:29;;;;;;;0.60;0.60;;;15.40;72.50;;;15.56;57.73;95509.59;5058068;28;20218;-80
2022/06/14 05:29:27;;;;;;;0.70;0.70;;;15.50;72.30;;;15.62;57.55;95506.91;5076001;28;20256;-80
2022/06/14 05:32:25;;;;;;;0.50;0.50;;;15.50;71.90;;;15.66;57.40;95497.56;5073891;28;20565;-79
2022/06/14 05:35:10;;;;;;;0.50;0.50;;;15.60;71.70;;;15.77;57.27;95495.25;5057755;28;20214;-79
2022/06/14 05:37:56;;;;;;;0.50;0.50;;;15.70;71.50;;;15.86;57.07;95506.47;5073341;28;20225;-81
2022/06/14 05:40:34;;;;;;;0.50;0.50;;;15.80;71.40;;;15.95;56.79;95502.53;5058137;28;20260;-80
2022/06/14 05:43:25;;;;;;;0.50;0.50;;;15.80;72.20;;;16.03;56.51;95504.13;5073998;28;20195;-80
2022/06/14 05:46:04;;;;;;;0.70;0.70;;;15.90;70.70;;;16.11;56.13;95496.78;5090467;28;20221;-80
2022/06/14 05:48:41;;;;;;;0.60;0.60;;;16.00;71.10;;;16.22;56.58;95500.59;5070902;28;20536;-80
2022/06/14 05:51:12;;;;;;;0.50;0.50;;;16.10;71.00;;;16.29;56.10;95503.97;5076695;28;20225;-80
2022/06/14 05:53:58;;;;;;;0.50;0.50;;;16.20;70.50;;;16.40;55.89;95512.28;5094312;28;20644;-80
2022/06/14 05:56:33;;;;;;;0.50;0.50;;;16.30;70.40;;;16.47;55.56;95499.81;5095736;28;20186;-80
2022/06/14 05:59:08;;;;;;;0.50;0.50;;;16.40;70.20;;;16.59;55.44;95502.59;5077063;28;20320;-80
2022/06/14 06:01:45;;;;;;;0.40;0.40;;;16.50;70.40;;;16.69;55.22;95500.25;5077305;28;20296;-80
2022/06/14 06:04:35;;;;;;;0.60;0.60;;;16.60;70.10;;;16.78;55.26;95509.56;5075073;28;20659;-79
2022/06/14 06:07:12;;;;;;;0.50;0.50;;;16.70;69.80;;;16.88;54.88;95500.31;5092356;28;20182;-80
2022/06/14 06:09:48;;;;;;;0.60;0.60;;;16.80;69.60;;;16.98;54.80;95502.50;5059515;28;20240;-80
2022/06/14 06:12:28;;;;;;;0.70;0.70;;;16.80;69.40;;;17.05;54.63;95504.09;5076616;28;20292;-79
2022/06/14 06:15:45;;;;;;;0.55;0.55;;;16.90;69.20;;;17.10;54.84;95506.88;5077253;28;20230;-81
2022/06/14 06:18:31;;;;;;;0.50;0.50;;;17.00;69.00;;;17.19;54.30;95502.09;5057695;28;20221;-79
2022/06/14 06:21:14;;;;;;;0.50;0.50;;;17.20;68.90;;;17.27;54.56;95506.31;5063541;28;20659;-81
2022/06/14 06:23:51;;;;;;;0.55;0.55;;;17.20;69.30;;;17.40;54.11;95514.13;5050770;28;20618;-81
2022/06/14 06:26:21;;;;;;;0.50;0.50;;;17.30;68.60;;;17.48;53.63;95510.41;5047030;28;20214;-79
2022/06/14 06:29:01;;;;;;;0.50;0.50;;;17.40;68.70;;;17.56;53.78;95511.94;5082935;28;20221;-80
2022/06/14 06:31:32;;;;;;;0.50;0.50;;;17.50;68.60;;;17.67;53.62;95508.53;5070334;28;20281;-81
2022/06/14 06:34:04;;;;;;;0.50;0.50;;;17.60;68.50;;;17.76;53.15;95517.81;5044859;28;20644;-80
2022/06/14 06:36:59;;;;;;;0.50;0.50;;;17.70;68.10;;;17.79;52.76;95508.59;5074360;28;20259;-79
2022/06/14 06:39:53;;;;;;;0.50;0.50;;;17.80;67.80;;;17.88;52.52;95515.25;5049559;28;20219;-81
2022/06/14 06:42:32;;;;;;;0.50;0.50;;;17.90;67.50;;;17.97;52.84;95504.34;5069752;28;20209;-80
2022/06/14 06:45:18;;;;;;;0.40;0.40;;;17.90;67.30;;;18.05;52.82;95507.50;5055006;28;20222;-80
2022/06/14 06:48:17;;;;;;;0.50;0.50;;;18.00;67.10;;;18.13;52.45;95506.38;5065061;28;20557;-81
2022/06/14 06:51:00;;;;;;;0.50;0.50;;;18.20;67.50;;;18.24;52.35;95507.47;5056624;28;20214;-81
2022/06/14 06:53:40;;;;;;;0.40;0.40;;;18.20;66.90;;;18.30;52.10;95493.28;5062948;28;20592;-80
2022/06/14 06:56:34;;;;;;;0.50;0.50;;;18.30;67.00;;;18.37;51.88;95520.56;5062858;28;20214;-80
2022/06/14 06:59:40;;;;;;;0.50;0.50;;;18.40;66.60;;;18.46;51.13;95517.59;5048226;28;20589;-80
2022/06/14 07:02:34;;;;;;;0.30;0.30;;;18.50;66.50;;;18.50;51.22;95510.78;5085084;28;20263;-80
2022/06/14 07:05:04;;;;;;;0.40;0.40;;;18.50;66.30;;;18.59;50.94;95508.59;5070238;28;20227;-80
2022/06/14 07:07:58;;;;;;;0.47;0.47;;;18.60;66.10;;;18.64;51.05;95514.03;5066223;28;20190;-80
2022/06/14 07:10:50;;;;;;;0.50;0.50;;;18.70;65.40;;;18.67;50.50;95516.25;5092038;28;20229;-81
2022/06/14 07:13:28;;;;;;;0.40;0.40;;;18.70;65.00;;;18.75;49.87;95513.28;5078223;28;20203;-79
2022/06/14 07:16:06;;;;;;;0.50;0.50;;;18.80;66.50;;;18.78;49.07;95512.78;5065169;28;20221;-80
2022/06/14 07:18:50;;;;;;;0.50;0.50;;;18.80;64.70;;;18.86;49.72;95511.69;5069735;28;20209;-81
2022/06/14 07:21:30;;;;;;;0.40;0.40;;;18.90;64.50;;;18.92;49.39;95515.28;5080153;28;20768;-81
2022/06/14 07:24:33;;;;;;;0.40;0.40;;;18.90;65.10;;;18.95;49.31;95512.97;5082994;28;20182;-81
2022/06/14 07:27:28;;;;;;;0.43;0.43;;;19.00;64.40;;;19.00;48.83;95504.31;5086989;28;20574;-80
2022/06/14 07:30:23;;;;;;;0.40;0.40;;;19.10;64.10;;;19.05;49.20;95507.09;5094609;28;20214;-80
2022/06/14 07:32:55;;;;;;;0.40;0.40;;;19.10;64.30;;;19.14;49.00;95507.53;5091240;28;20548;-80
2022/06/14 07:35:49;;;;;;;0.50;0.50;;;19.20;64.20;;;19.21;48.81;95510.91;5063012;28;20258;-80
2022/06/14 07:38:28;;;;;;;0.40;0.40;;;19.30;64.40;;;19.27;48.53;95507.31;5076909;28;20227;-80
2022/06/14 07:41:36;;;;;;;0.50;0.50;;;19.30;63.80;;;19.34;49.07;95515.19;5100414;28;20241;-80
2022/06/14 07:44:30;;;;;;;0.40;0.40;;;19.30;64.30;;;19.39;48.73;95509.97;5089178;28;20198;-81
2022/06/14 07:47:18;;;;;;;0.40;0.40;;;19.40;63.10;;;19.44;48.48;95523.38;5074373;28;20270;-81
2022/06/14 07:50:22;;;;;;;0.50;0.50;;;19.50;63.10;;;19.52;48.05;95519.56;5093058;28;20726;-81
2022/06/14 07:53:42;;;;;;;0.40;0.40;;;19.60;63.60;;;19.52;47.08;95517.72;5077101;28;20186;-81
2022/06/14 07:56:14;;;;;;;0.40;0.40;;;19.60;63.20;;;19.55;47.13;95521.75;5069886;28;20755;-81
2022/06/14 07:58:50;;;;;;;0.40;0.40;;;19.60;63.20;;;19.60;47.66;95513.88;5076757;28;20257;-79
2022/06/14 08:01:50;;;;;;;0.40;0.40;;;19.60;63.20;;;19.63;47.37;95517.94;5075919;28;20724;-79
2022/06/14 08:04:39;;;;;;;0.40;0.40;;;19.70;63.20;;;19.70;47.21;95515.13;5092780;28;20255;-79
2022/06/14 08:07:13;;;;;;;0.50;0.50;;;19.70;63.20;;;19.77;47.08;95523.81;5073148;28;20198;-79
2022/06/14 08:10:13;;;;;;;0.40;0.40;;;19.80;63.30;;;19.82;46.76;95521.25;5082232;28;20252;-80
2022/06/14 08:12:58;;;;;;;0.40;0.40;;;19.90;63.20;;;19.91;47.26;95521.72;5068628;28;21766;-79
2022/06/14 08:15:32;;;;;;;0.40;0.40;;;19.90;63.40;;;20.00;47.04;95512.31;5067017;28;20267;-79
2022/06/14 08:18:15;;;;;;;0.40;0.40;;;20.00;63.10;;;20.09;46.59;95518.06;5064255;28;20218;-79
2022/06/14 08:21:00;;;;;;;0.40;0.40;;;20.10;62.70;;;20.13;44.88;95522.69;5064195;28;20205;-80
2022/06/14 08:23:58;;;;;;;0.50;0.50;;;20.20;61.70;;;20.07;43.39;95515.66;5084530;28;20819;-79
2022/06/14 08:26:35;;;;;;;0.40;0.40;;;20.20;61.30;;;20.12;44.65;95512.28;5073325;28;20192;-79
2022/06/14 08:29:45;;;;;;;0.40;0.40;;;20.20;61.10;;;20.24;45.92;95507.72;5072759;28;20264;-79
2022/06/14 08:32:25;;;;;;;0.60;0.60;;;20.30;61.90;;;20.39;45.46;95507.19;5088431;28;20225;-79
2022/06/14 08:35:21;;;;;;;0.40;0.40;;;20.40;61.80;;;20.55;45.90;95500.25;5069901;28;20239;-80
2022/06/14 08:38:28;;;;;;;0.40;0.40;;;20.50;62.20;;;20.66;45.20;95503.13;5088491;28;20210;-78
2022/06/14 08:41:36;;;;;;;0.50;0.50;;;20.60;62.50;;;20.74;44.39;95500.09;5015629;28;20294;-80
2022/06/14 08:44:16;;;;;;;0.45;0.45;;;20.70;61.30;;;20.82;44.95;95497.00;5052855;28;20205;-80
2022/06/14 08:47:10;;;;;;;0.38;0.38;;;20.90;61.60;;;20.93;45.11;95503.31;5053527;28;20198;-80
2022/06/14 08:50:34;;;;;;;0.40;0.40;;;20.90;61.70;;;21.07;45.17;95501.94;5088917;28;20596;-79
2022/06/14 08:53:35;;;;;;;0.40;0.40;;;21.00;61.90;;;21.19;44.62;95498.34;5085408;28;20258;-81
2022/06/14 08:56:17;;;;;;;0.50;0.50;;;21.20;61.40;;;21.34;44.94;95495.91;5089374;28;20230;-80
2022/06/14 08:59:05;;;;;;;0.40;0.40;;;21.30;61.30;;;21.52;44.92;95494.00;5077069;28;20285;-81
2022/06/14 09:02:01;;;;;;;0.40;0.40;;;21.40;60.90;;;21.68;44.57;95485.19;5095452;28;20290;-80
2022/06/14 09:05:09;;;;;;;0.40;0.40;;;21.60;61.10;;;21.86;44.43;95491.25;5095244;28;20296;-80
2022/06/14 09:07:57;;;;;;;0.40;0.40;;;21.80;61.40;;;21.97;44.50;95479.66;5091835;28;20282;-80
2022/06/14 09:11:07;;;;;;;0.50;0.50;;;21.90;60.90;;;22.11;44.77;95479.28;5077287;28;20224;-79
2022/06/14 09:14:00;;;;;;;0.40;0.40;;;22.00;61.40;;;22.25;44.86;95471.66;5086832;28;20781;-81
2022/06/14 09:16:48;;;;;;;0.60;0.60;;;22.20;61.60;;;22.38;42.86;95472.09;5072985;28;20229;-79
2022/06/14 09:19:56;;;;;;;0.30;0.30;;;22.40;60.70;;;22.48;43.22;95476.72;5089054;28;20225;-80
2022/06/14 09:23:06;;;;;;;0.45;0.45;;;22.50;60.50;;;22.60;43.52;95475.75;5071020;28;20202;-79
2022/06/14 09:26:23;;;;;;;0.40;0.40;;;22.60;60.60;;;22.68;42.92;95480.66;5096295;28;20222;-80
2022/06/14 09:29:18;;;;;;;0.30;0.30;;;22.70;59.80;;;22.73;41.24;95486.03;5090010;28;20346;-81
2022/06/14 09:32:03;;;;;;;0.50;0.50;;;22.80;58.20;;;22.75;40.51;95483.91;5074301;28;20595;-80
2022/06/14 09:35:03;;;;;;;0.57;0.57;;;22.90;58.30;;;22.87;41.79;95481.06;5090988;28;20599;-80
2022/06/14 09:38:05;;;;;;;0.40;0.40;;;23.00;59.00;;;23.04;42.28;95472.88;5073351;28;20205;-79
2022/06/14 09:41:15;;;;;;;0.57;0.57;;;23.10;59.50;;;23.24;42.65;95476.78;5076575;28;20780;-80
2022/06/14 09:44:20;;;;;;;0.30;0.30;;;23.30;59.60;;;23.45;42.27;95480.41;5077003;28;21206;-79
2022/06/14 09:47:27;;;;;;;0.30;0.30;;;23.50;59.80;;;23.54;41.32;95480.72;5054157;28;20715;-80
2022/06/14 09:50:09;;;;;;;0.40;0.40;;;23.60;58.00;;;23.56;40.99;95481.25;5094680;28;20218;-79
2022/06/14 09:53:09;;;;;;;0.35;0.35;;;23.70;57.20;;;23.59;40.35;95486.88;5094547;28;20196;-79
2022/06/14 09:56:22;;;;;;;0.30;0.30;;;23.80;58.30;;;23.58;40.09;95485.31;5076254;28;20323;-80
2022/06/14 09:59:04;;;;;;;0.43;0.43;;;23.80;57.20;;;23.57;40.04;95482.88;5091825;28;20223;-79
2022/06/14 10:01:48;;;;;;;0.60;0.60;;;23.80;56.80;;;23.55;40.22;95487.69;5093061;28;20293;-80
2022/06/14 10:04:44;;;;;;;0.30;0.30;;;23.80;56.90;;;23.48;40.81;95487.91;5072584;28;20189;-79
2022/06/14 10:07:48;;;;;;;0.52;0.52;;;23.70;57.00;;;23.48;40.95;95482.56;5073670;28;20195;-79
2022/06/14 10:10:48;;;;;;;0.30;0.30;;;23.70;57.90;;;23.57;41.08;95480.19;5090092;28;20482;-80
2022/06/14 10:13:44;;;;;;;0.30;0.30;;;23.70;57.60;;;23.71;40.49;95475.97;5097577;28;20236;-81
2022/06/14 10:17:02;;;;;;;0.30;0.30;;;23.80;56.60;;;23.85;40.47;95472.81;5093968;28;20202;-80
2022/06/14 10:19:51;;;;;;;0.50;0.50;;;24.00;57.90;;;23.99;40.42;95471.28;5093494;28;20291;-80
2022/06/14 10:23:00;;;;;;;0.30;0.30;;;24.10;57.40;;;24.04;39.61;95478.53;5063478;28;20282;-80
2022/06/14 10:28:11;;;;;;;0.30;0.30;;;24.20;55.80;;;24.03;39.76;95472.38;5096589;28;20210;-80
2022/06/14 10:29:04;;;;;;;0.50;0.50;;;24.20;56.30;;;24.05;39.59;95474.81;5090835;28;20706;-79
2022/06/14 10:32:17;;;;;;;0.30;0.30;;;24.30;56.30;;;24.15;39.69;95461.41;5069420;28;20219;-78
2022/06/14 10:34:58;;;;;;;0.30;0.30;;;24.30;56.40;;;24.28;39.54;95460.13;5102824;28;20226;-79
2022/06/14 10:38:05;;;;;;;0.30;0.30;;;24.40;55.70;;;24.35;39.41;95449.13;5080412;28;20438;-77
2022/06/14 10:40:53;;;;;;;0.43;0.43;;;24.50;55.90;;;24.36;39.19;95459.56;5089840;28;20215;-79
2022/06/14 10:43:54;;;;;;;0.32;0.32;;;24.50;55.10;;;24.40;38.93;95451.81;5054619;28;20199;-77
2022/06/14 10:46:27;;;;;;;0.40;0.40;;;24.60;56.10;;;24.43;39.01;95451.28;5088148;28;20600;-78
2022/06/14 10:49:16;;;;;;;0.40;0.40;;;24.60;54.90;;;24.40;38.00;95446.44;5087330;28;20207;-79
2022/06/14 10:51:43;;;;;;;0.30;0.30;;;24.60;54.40;;;24.36;37.32;95459.56;5056804;28;20215;-80
2022/06/14 10:54:47;;;;;;;0.40;0.40;;;24.60;53.90;;;24.29;36.84;95440.25;5098102;28;20240;-77
2022/06/14 10:57:50;;;;;;;0.40;0.40;;;24.60;54.20;;;24.28;37.11;95454.75;5081238;28;20293;-78
2022/06/14 11:00:51;;;;;;;0.30;0.30;;;24.60;54.10;;;24.36;37.90;95440.81;5089582;28;20278;-80
2022/06/14 11:03:44;;;;;;;0.40;0.40;;;24.50;54.60;;;24.52;37.32;95435.47;5093014;28;20198;-78
2022/06/14 11:07:07;;;;;;;0.40;0.40;;;24.60;53.80;;;24.62;37.49;95433.59;5087921;28;20293;-81
2022/06/14 11:10:19;;;;;;;0.40;0.40;;;24.70;53.70;;;24.78;37.82;95434.41;5091898;28;20333;-79
2022/06/14 11:13:24;;;;;;;0.38;0.38;;;24.80;54.10;;;24.90;37.22;95436.00;5091008;28;20294;-79
2022/06/14 11:16:33;;;;;;;0.30;0.30;;;24.90;53.80;;;24.90;36.57;95438.69;5064746;28;20310;-79
2022/06/14 11:22:26;;;;;;;0.40;0.40;;;25.00;52.90;;;24.86;36.63;95432.28;5082088;28;20235;-81
2022/06/14 11:25:29;;;;;;;0.30;0.30;;;25.00;53.30;;;24.82;37.19;95434.69;5059653;28;20221;-81
2022/06/14 11:28:14;;;;;;;0.40;0.40;;;25.00;53.80;;;24.76;36.03;95425.03;5075430;28;20214;-81
2022/06/14 11:31:12;;;;;;;0.50;0.50;;;25.00;52.00;;;24.70;35.82;95429.59;5094033;28;20211;-79
2022/06/14 11:34:31;;;;;;;0.30;0.30;;;24.90;52.00;;;24.70;36.62;95418.84;5073358;28;20607;-80
2022/06/14 11:37:27;;;;;;;0.30;0.30;;;24.90;53.40;;;24.80;36.10;95412.69;5068270;28;20214;-81
2022/06/14 11:40:21;;;;;;;0.30;0.30;;;24.90;52.30;;;24.94;36.75;95416.41;5075856;28;20222;-80
2022/06/14 11:42:57;;;;;;;0.40;0.40;;;25.10;53.20;;;25.05;34.59;95419.91;5059175;28;20201;-81
2022/06/14 11:46:04;;;;;;;0.30;0.30;;;25.20;51.10;;;25.14;35.71;95411.28;5093175;28;20225;-81
2022/06/14 11:49:04;;;;;;;0.30;0.30;;;25.20;52.00;;;25.26;36.07;95415.28;5072831;28;20304;-81
2022/06/14 11:52:10;;;;;;;0.30;0.30;;;25.40;52.10;;;25.41;36.42;95411.78;5058556;28;20205;-80
2022/06/14 11:55:17;;;;;;;0.40;0.40;;;25.50;53.00;;;25.56;36.47;95397.50;5090050;28;20230;-80